sensor_id;sensor_type;location;lat;lon;timestamp;P1;durP1;ratioP1;P2;durP2;ratioP2
6111;SDS011;3086;48.802;9.394;2024-01-30T00:01:51;10.97;;;8.40;;
6111;SDS011;3086;48.802;9.394;2024-01-30T00:05:13;13.73;;;9.00;;
6111;SDS011;3086;48.802;9.394;2024-01-30T00:08:35;9.47;;;8.37;;
6111;SDS011;3086;48.802;9.394;2024-01-30T00:11:56;7.57;;;6.77;;
6111;SDS011;3086;48.802;9.394;2024-01-30T00:15:18;11.60;;;7.47;;
6111;SDS011;3086;48.802;9.394;2024-01-30T00:18:41;10.57;;;7.90;;
6111;SDS011;3086;48.802;9.394;2024-01-30T00:22:02;8.73;;;7.43;;
6111;SDS011;3086;48.802;9.394;2024-01-30T00:25:24;8.70;;;7.33;;
6111;SDS011;3086;48.802;9.394;2024-01-30T00:28:45;9.20;;;7.83;;
6111;SDS011;3086;48.802;9.394;2024-01-30T00:32:07;11.63;;;7.37;;
6111;SDS011;3086;48.802;9.394;2024-01-30T00:35:30;10.47;;;7.53;;
6111;SDS011;3086;48.802;9.394;2024-01-30T00:38:51;9.70;;;6.90;;
6111;SDS011;3086;48.802;9.394;2024-01-30T00:42:13;8.17;;;6.60;;
6111;SDS011;3086;48.802;9.394;2024-01-30T00:45:34;8.87;;;6.83;;
6111;SDS011;3086;48.802;9.394;2024-01-30T00:48:56;9.27;;;6.93;;
6111;SDS011;3086;48.802;9.394;2024-01-30T00:52:19;9.60;;;6.70;;
6111;SDS011;3086;48.802;9.394;2024-01-30T00:55:40;9.97;;;7.60;;
6111;SDS011;3086;48.802;9.394;2024-01-30T00:59:02;7.93;;;6.67;;
6111;SDS011;3086;48.802;9.394;2024-01-30T01:02:23;9.67;;;7.33;;
6111;SDS011;3086;48.802;9.394;2024-01-30T01:05:45;10.60;;;6.87;;
6111;SDS011;3086;48.802;9.394;2024-01-30T01:09:08;9.27;;;7.83;;
6111;SDS011;3086;48.802;9.394;2024-01-30T01:12:29;8.53;;;7.47;;
6111;SDS011;3086;48.802;9.394;2024-01-30T01:15:51;8.27;;;6.47;;
6111;SDS011;3086;48.802;9.394;2024-01-30T01:19:12;6.90;;;6.30;;
6111;SDS011;3086;48.802;9.394;2024-01-30T01:22:34;8.87;;;6.80;;
6111;SDS011;3086;48.802;9.394;2024-01-30T01:25:57;7.20;;;5.97;;
6111;SDS011;3086;48.802;9.394;2024-01-30T01:29:19;7.70;;;6.27;;
6111;SDS011;3086;48.802;9.394;2024-01-30T01:32:48;7.57;;;6.87;;
6111;SDS011;3086;48.802;9.394;2024-01-30T01:36:14;7.90;;;6.57;;
6111;SDS011;3086;48.802;9.394;2024-01-30T01:39:36;8.20;;;6.43;;
6111;SDS011;3086;48.802;9.394;2024-01-30T01:43:02;7.13;;;6.00;;
6111;SDS011;3086;48.802;9.394;2024-01-30T01:46:26;7.43;;;5.93;;
6111;SDS011;3086;48.802;9.394;2024-01-30T01:49:48;8.33;;;6.07;;
6111;SDS011;3086;48.802;9.394;2024-01-30T01:53:09;7.27;;;6.40;;
6111;SDS011;3086;48.802;9.394;2024-01-30T01:56:31;6.67;;;6.03;;
6111;SDS011;3086;48.802;9.394;2024-01-30T01:59:54;8.30;;;6.57;;
6111;SDS011;3086;48.802;9.394;2024-01-30T02:03:15;7.57;;;6.20;;
6111;SDS011;3086;48.802;9.394;2024-01-30T02:06:38;8.67;;;6.43;;
6111;SDS011;3086;48.802;9.394;2024-01-30T02:09:59;8.43;;;6.73;;
6111;SDS011;3086;48.802;9.394;2024-01-30T02:13:21;7.37;;;6.53;;
6111;SDS011;3086;48.802;9.394;2024-01-30T02:16:44;8.57;;;6.90;;
6111;SDS011;3086;48.802;9.394;2024-01-30T02:20:06;8.73;;;6.60;;
6111;SDS011;3086;48.802;9.394;2024-01-30T02:23:30;7.70;;;6.90;;
6111;SDS011;3086;48.802;9.394;2024-01-30T02:26:52;10.37;;;6.80;;
6111;SDS011;3086;48.802;9.394;2024-01-30T02:30:13;7.27;;;6.50;;
6111;SDS011;3086;48.802;9.394;2024-01-30T02:33:35;7.37;;;6.10;;
6111;SDS011;3086;48.802;9.394;2024-01-30T02:36:56;8.10;;;6.53;;
6111;SDS011;3086;48.802;9.394;2024-01-30T02:40:19;8.10;;;6.37;;
6111;SDS011;3086;48.802;9.394;2024-01-30T02:43:41;9.50;;;7.33;;
6111;SDS011;3086;48.802;9.394;2024-01-30T02:47:02;7.83;;;6.80;;
6111;SDS011;3086;48.802;9.394;2024-01-30T02:50:24;10.13;;;7.23;;
6111;SDS011;3086;48.802;9.394;2024-01-30T02:53:45;8.67;;;7.50;;
6111;SDS011;3086;48.802;9.394;2024-01-30T02:57:08;9.00;;;7.60;;
6111;SDS011;3086;48.802;9.394;2024-01-30T03:00:30;9.83;;;7.87;;
6111;SDS011;3086;48.802;9.394;2024-01-30T03:03:51;11.53;;;7.77;;
6111;SDS011;3086;48.802;9.394;2024-01-30T03:07:13;8.17;;;7.23;;
6111;SDS011;3086;48.802;9.394;2024-01-30T03:10:34;10.77;;;7.57;;
6111;SDS011;3086;48.802;9.394;2024-01-30T03:13:57;9.60;;;7.33;;
6111;SDS011;3086;48.802;9.394;2024-01-30T03:17:19;8.83;;;7.70;;
6111;SDS011;3086;48.802;9.394;2024-01-30T03:20:40;8.20;;;6.70;;
6111;SDS011;3086;48.802;9.394;2024-01-30T03:24:02;11.07;;;8.07;;
6111;SDS011;3086;48.802;9.394;2024-01-30T03:27:24;9.80;;;7.87;;
6111;SDS011;3086;48.802;9.394;2024-01-30T03:30:47;9.73;;;7.50;;
6111;SDS011;3086;48.802;9.394;2024-01-30T03:34:08;10.17;;;8.07;;
6111;SDS011;3086;48.802;9.394;2024-01-30T03:37:30;10.73;;;8.23;;
6111;SDS011;3086;48.802;9.394;2024-01-30T03:40:51;9.37;;;7.70;;
6111;SDS011;3086;48.802;9.394;2024-01-30T03:44:13;10.00;;;8.50;;
6111;SDS011;3086;48.802;9.394;2024-01-30T03:47:35;13.00;;;8.77;;
6111;SDS011;3086;48.802;9.394;2024-01-30T03:50:57;12.03;;;8.27;;
6111;SDS011;3086;48.802;9.394;2024-01-30T03:54:18;11.53;;;8.17;;
6111;SDS011;3086;48.802;9.394;2024-01-30T03:57:40;8.20;;;7.40;;
6111;SDS011;3086;48.802;9.394;2024-01-30T04:01:01;10.80;;;8.67;;
6111;SDS011;3086;48.802;9.394;2024-01-30T04:04:25;9.40;;;7.97;;
6111;SDS011;3086;48.802;9.394;2024-01-30T04:07:46;9.70;;;7.97;;
6111;SDS011;3086;48.802;9.394;2024-01-30T04:11:08;8.23;;;7.37;;
6111;SDS011;3086;48.802;9.394;2024-01-30T04:14:29;11.87;;;8.53;;
6111;SDS011;3086;48.802;9.394;2024-01-30T04:17:51;13.33;;;8.03;;
6111;SDS011;3086;48.802;9.394;2024-01-30T04:21:14;8.43;;;7.47;;
6111;SDS011;3086;48.802;9.394;2024-01-30T04:24:35;9.60;;;8.23;;
6111;SDS011;3086;48.802;9.394;2024-01-30T04:27:57;9.50;;;7.37;;
6111;SDS011;3086;48.802;9.394;2024-01-30T04:31:18;9.43;;;7.70;;
6111;SDS011;3086;48.802;9.394;2024-01-30T04:34:40;8.90;;;7.40;;
6111;SDS011;3086;48.802;9.394;2024-01-30T04:38:03;10.37;;;7.77;;
6111;SDS011;3086;48.802;9.394;2024-01-30T04:41:24;10.80;;;8.07;;
6111;SDS011;3086;48.802;9.394;2024-01-30T04:44:48;8.83;;;7.57;;
6111;SDS011;3086;48.802;9.394;2024-01-30T04:48:10;9.50;;;8.50;;
6111;SDS011;3086;48.802;9.394;2024-01-30T04:51:31;11.87;;;7.50;;
6111;SDS011;3086;48.802;9.394;2024-01-30T04:54:54;8.60;;;7.13;;
6111;SDS011;3086;48.802;9.394;2024-01-30T04:58:16;8.60;;;7.57;;
6111;SDS011;3086;48.802;9.394;2024-01-30T05:01:37;8.37;;;7.57;;
6111;SDS011;3086;48.802;9.394;2024-01-30T05:04:59;10.77;;;8.33;;
6111;SDS011;3086;48.802;9.394;2024-01-30T05:08:20;9.87;;;7.33;;
6111;SDS011;3086;48.802;9.394;2024-01-30T05:11:43;11.77;;;8.27;;
6111;SDS011;3086;48.802;9.394;2024-01-30T05:15:05;10.60;;;8.10;;
6111;SDS011;3086;48.802;9.394;2024-01-30T05:18:27;8.93;;;7.40;;
6111;SDS011;3086;48.802;9.394;2024-01-30T05:21:49;8.87;;;8.03;;
6111;SDS011;3086;48.802;9.394;2024-01-30T05:25:10;9.50;;;8.57;;
6111;SDS011;3086;48.802;9.394;2024-01-30T05:28:34;10.47;;;8.10;;
6111;SDS011;3086;48.802;9.394;2024-01-30T05:31:56;8.73;;;7.80;;
6111;SDS011;3086;48.802;9.394;2024-01-30T05:35:18;9.90;;;8.10;;
6111;SDS011;3086;48.802;9.394;2024-01-30T05:38:41;10.67;;;8.70;;
6111;SDS011;3086;48.802;9.394;2024-01-30T05:42:02;9.53;;;8.20;;
6111;SDS011;3086;48.802;9.394;2024-01-30T05:45:26;10.03;;;8.20;;
6111;SDS011;3086;48.802;9.394;2024-01-30T05:48:47;8.90;;;7.80;;
6111;SDS011;3086;48.802;9.394;2024-01-30T05:52:09;9.83;;;8.43;;
6111;SDS011;3086;48.802;9.394;2024-01-30T05:55:31;9.27;;;7.97;;
6111;SDS011;3086;48.802;9.394;2024-01-30T05:58:52;8.33;;;7.47;;
6111;SDS011;3086;48.802;9.394;2024-01-30T06:02:15;9.50;;;7.90;;
6111;SDS011;3086;48.802;9.394;2024-01-30T06:05:36;11.97;;;8.17;;
6111;SDS011;3086;48.802;9.394;2024-01-30T06:08:58;10.03;;;8.57;;
6111;SDS011;3086;48.802;9.394;2024-01-30T06:12:20;12.33;;;9.60;;
6111;SDS011;3086;48.802;9.394;2024-01-30T06:15:41;13.23;;;10.47;;
6111;SDS011;3086;48.802;9.394;2024-01-30T06:19:04;10.67;;;9.57;;
6111;SDS011;3086;48.802;9.394;2024-01-30T06:22:26;10.83;;;9.03;;
6111;SDS011;3086;48.802;9.394;2024-01-30T06:25:47;12.60;;;8.87;;
6111;SDS011;3086;48.802;9.394;2024-01-30T06:29:09;12.90;;;9.00;;
6111;SDS011;3086;48.802;9.394;2024-01-30T06:32:30;9.83;;;8.40;;
6111;SDS011;3086;48.802;9.394;2024-01-30T06:35:55;11.23;;;8.50;;
6111;SDS011;3086;48.802;9.394;2024-01-30T06:39:17;9.20;;;7.50;;
6111;SDS011;3086;48.802;9.394;2024-01-30T06:42:39;10.53;;;8.20;;
6111;SDS011;3086;48.802;9.394;2024-01-30T06:46:00;13.07;;;8.97;;
6111;SDS011;3086;48.802;9.394;2024-01-30T06:49:22;12.70;;;8.63;;
6111;SDS011;3086;48.802;9.394;2024-01-30T06:52:44;11.67;;;8.80;;
6111;SDS011;3086;48.802;9.394;2024-01-30T06:56:06;14.97;;;9.97;;
6111;SDS011;3086;48.802;9.394;2024-01-30T06:59:27;13.73;;;8.83;;
6111;SDS011;3086;48.802;9.394;2024-01-30T07:02:49;13.33;;;9.13;;
6111;SDS011;3086;48.802;9.394;2024-01-30T07:06:10;13.00;;;8.70;;
6111;SDS011;3086;48.802;9.394;2024-01-30T07:09:33;10.53;;;8.93;;
6111;SDS011;3086;48.802;9.394;2024-01-30T07:12:56;13.63;;;9.30;;
6111;SDS011;3086;48.802;9.394;2024-01-30T07:16:18;10.03;;;8.63;;
6111;SDS011;3086;48.802;9.394;2024-01-30T07:19:39;11.63;;;8.97;;
6111;SDS011;3086;48.802;9.394;2024-01-30T07:23:01;13.70;;;9.27;;
6111;SDS011;3086;48.802;9.394;2024-01-30T07:26:24;10.30;;;9.17;;
6111;SDS011;3086;48.802;9.394;2024-01-30T07:29:46;13.57;;;8.87;;
6111;SDS011;3086;48.802;9.394;2024-01-30T07:33:07;11.73;;;9.57;;
6111;SDS011;3086;48.802;9.394;2024-01-30T07:36:29;10.20;;;8.87;;
6111;SDS011;3086;48.802;9.394;2024-01-30T07:39:51;12.10;;;10.03;;
6111;SDS011;3086;48.802;9.394;2024-01-30T07:43:13;10.03;;;9.03;;
6111;SDS011;3086;48.802;9.394;2024-01-30T07:46:35;10.03;;;8.63;;
6111;SDS011;3086;48.802;9.394;2024-01-30T07:49:57;11.00;;;9.23;;
6111;SDS011;3086;48.802;9.394;2024-01-30T07:53:18;11.23;;;8.67;;
6111;SDS011;3086;48.802;9.394;2024-01-30T07:56:40;11.03;;;9.37;;
6111;SDS011;3086;48.802;9.394;2024-01-30T08:00:03;12.00;;;9.50;;
6111;SDS011;3086;48.802;9.394;2024-01-30T08:03:27;12.67;;;10.23;;
6111;SDS011;3086;48.802;9.394;2024-01-30T08:06:48;16.43;;;11.40;;
6111;SDS011;3086;48.802;9.394;2024-01-30T08:10:11;14.03;;;10.30;;
6111;SDS011;3086;48.802;9.394;2024-01-30T08:13:32;14.83;;;10.77;;
6111;SDS011;3086;48.802;9.394;2024-01-30T08:16:55;13.50;;;11.00;;
6111;SDS011;3086;48.802;9.394;2024-01-30T08:20:17;16.30;;;10.70;;
6111;SDS011;3086;48.802;9.394;2024-01-30T08:23:38;16.27;;;10.87;;
6111;SDS011;3086;48.802;9.394;2024-01-30T08:27:00;20.67;;;13.53;;
6111;SDS011;3086;48.802;9.394;2024-01-30T08:30:22;21.93;;;13.03;;
6111;SDS011;3086;48.802;9.394;2024-01-30T08:33:45;18.30;;;11.33;;
6111;SDS011;3086;48.802;9.394;2024-01-30T08:37:07;16.07;;;11.80;;
6111;SDS011;3086;48.802;9.394;2024-01-30T08:40:29;17.30;;;11.00;;
6111;SDS011;3086;48.802;9.394;2024-01-30T08:43:51;18.03;;;11.00;;
6111;SDS011;3086;48.802;9.394;2024-01-30T08:47:13;16.50;;;11.60;;
6111;SDS011;3086;48.802;9.394;2024-01-30T08:50:37;11.60;;;9.47;;
6111;SDS011;3086;48.802;9.394;2024-01-30T08:53:59;18.33;;;10.47;;
6111;SDS011;3086;48.802;9.394;2024-01-30T08:57:21;11.90;;;9.27;;
6111;SDS011;3086;48.802;9.394;2024-01-30T09:00:42;10.43;;;8.47;;
6111;SDS011;3086;48.802;9.394;2024-01-30T09:04:04;13.63;;;10.03;;
6111;SDS011;3086;48.802;9.394;2024-01-30T09:07:27;13.17;;;10.53;;
6111;SDS011;3086;48.802;9.394;2024-01-30T09:10:48;23.27;;;18.93;;
6111;SDS011;3086;48.802;9.394;2024-01-30T09:14:10;14.97;;;11.23;;
6111;SDS011;3086;48.802;9.394;2024-01-30T09:17:32;11.97;;;9.13;;
6111;SDS011;3086;48.802;9.394;2024-01-30T09:20:54;14.43;;;12.97;;
6111;SDS011;3086;48.802;9.394;2024-01-30T09:24:17;14.83;;;12.03;;
6111;SDS011;3086;48.802;9.394;2024-01-30T09:27:38;15.87;;;11.87;;
6111;SDS011;3086;48.802;9.394;2024-01-30T09:31:00;55.63;;;40.67;;
6111;SDS011;3086;48.802;9.394;2024-01-30T09:34:22;106.67;;;84.50;;
6111;SDS011;3086;48.802;9.394;2024-01-30T09:37:44;43.00;;;30.63;;
6111;SDS011;3086;48.802;9.394;2024-01-30T09:41:08;23.57;;;17.03;;
6111;SDS011;3086;48.802;9.394;2024-01-30T09:44:30;16.60;;;12.87;;
6111;SDS011;3086;48.802;9.394;2024-01-30T09:47:52;18.23;;;14.03;;
6111;SDS011;3086;48.802;9.394;2024-01-30T09:51:14;14.43;;;11.00;;
6111;SDS011;3086;48.802;9.394;2024-01-30T09:54:36;15.60;;;11.57;;
6111;SDS011;3086;48.802;9.394;2024-01-30T09:58:00;13.60;;;11.00;;
6111;SDS011;3086;48.802;9.394;2024-01-30T10:01:22;12.87;;;11.50;;
6111;SDS011;3086;48.802;9.394;2024-01-30T10:04:43;12.63;;;10.97;;
6111;SDS011;3086;48.802;9.394;2024-01-30T10:08:06;14.33;;;11.63;;
6111;SDS011;3086;48.802;9.394;2024-01-30T10:11:28;16.10;;;12.50;;
6111;SDS011;3086;48.802;9.394;2024-01-30T10:14:51;16.97;;;14.20;;
6111;SDS011;3086;48.802;9.394;2024-01-30T10:18:12;23.13;;;19.67;;
6111;SDS011;3086;48.802;9.394;2024-01-30T10:21:34;22.83;;;15.47;;
6111;SDS011;3086;48.802;9.394;2024-01-30T10:24:56;12.23;;;9.37;;
6111;SDS011;3086;48.802;9.394;2024-01-30T10:28:17;11.70;;;9.23;;
6111;SDS011;3086;48.802;9.394;2024-01-30T10:31:40;13.67;;;10.13;;
6111;SDS011;3086;48.802;9.394;2024-01-30T10:35:02;13.00;;;8.60;;
6111;SDS011;3086;48.802;9.394;2024-01-30T10:38:23;13.13;;;8.83;;
6111;SDS011;3086;48.802;9.394;2024-01-30T10:41:47;11.90;;;9.20;;
6111;SDS011;3086;48.802;9.394;2024-01-30T10:45:09;11.23;;;8.97;;
6111;SDS011;3086;48.802;9.394;2024-01-30T10:48:33;13.30;;;9.07;;
6111;SDS011;3086;48.802;9.394;2024-01-30T10:52:00;13.03;;;9.10;;
6111;SDS011;3086;48.802;9.394;2024-01-30T10:55:22;14.07;;;10.63;;
6111;SDS011;3086;48.802;9.394;2024-01-30T10:58:44;12.43;;;9.23;;
6111;SDS011;3086;48.802;9.394;2024-01-30T11:02:06;10.53;;;8.43;;
6111;SDS011;3086;48.802;9.394;2024-01-30T11:05:29;12.20;;;8.73;;
6111;SDS011;3086;48.802;9.394;2024-01-30T11:08:59;11.10;;;8.97;;
6111;SDS011;3086;48.802;9.394;2024-01-30T11:12:22;10.87;;;8.33;;
6111;SDS011;3086;48.802;9.394;2024-01-30T11:15:44;13.30;;;8.43;;
6111;SDS011;3086;48.802;9.394;2024-01-30T11:19:10;14.50;;;8.43;;
6111;SDS011;3086;48.802;9.394;2024-01-30T11:22:33;15.53;;;8.40;;
6111;SDS011;3086;48.802;9.394;2024-01-30T11:25:55;10.97;;;8.37;;
6111;SDS011;3086;48.802;9.394;2024-01-30T11:29:17;10.43;;;7.73;;
6111;SDS011;3086;48.802;9.394;2024-01-30T11:32:39;13.83;;;9.30;;
6111;SDS011;3086;48.802;9.394;2024-01-30T11:36:01;11.97;;;8.63;;
6111;SDS011;3086;48.802;9.394;2024-01-30T11:39:24;13.27;;;8.97;;
6111;SDS011;3086;48.802;9.394;2024-01-30T11:42:46;12.13;;;7.67;;
6111;SDS011;3086;48.802;9.394;2024-01-30T11:46:08;11.20;;;8.37;;
6111;SDS011;3086;48.802;9.394;2024-01-30T11:49:30;9.97;;;5.83;;
6111;SDS011;3086;48.802;9.394;2024-01-30T11:52:51;18.13;;;12.37;;
6111;SDS011;3086;48.802;9.394;2024-01-30T11:56:14;15.70;;;9.97;;
6111;SDS011;3086;48.802;9.394;2024-01-30T11:59:36;19.03;;;9.67;;
6111;SDS011;3086;48.802;9.394;2024-01-30T12:02:58;7.13;;;4.60;;
6111;SDS011;3086;48.802;9.394;2024-01-30T12:06:20;9.23;;;4.93;;
6111;SDS011;3086;48.802;9.394;2024-01-30T12:09:42;6.27;;;4.53;;
6111;SDS011;3086;48.802;9.394;2024-01-30T12:13:05;4.57;;;4.13;;
6111;SDS011;3086;48.802;9.394;2024-01-30T12:16:26;9.70;;;6.63;;
6111;SDS011;3086;48.802;9.394;2024-01-30T12:19:48;8.27;;;6.10;;
6111;SDS011;3086;48.802;9.394;2024-01-30T12:23:11;6.80;;;4.30;;
6111;SDS011;3086;48.802;9.394;2024-01-30T12:26:33;5.83;;;4.73;;
6111;SDS011;3086;48.802;9.394;2024-01-30T12:29:56;5.37;;;4.00;;
6111;SDS011;3086;48.802;9.394;2024-01-30T12:33:18;7.30;;;5.30;;
6111;SDS011;3086;48.802;9.394;2024-01-30T12:36:40;4.93;;;4.40;;
6111;SDS011;3086;48.802;9.394;2024-01-30T12:40:02;7.63;;;4.50;;
6111;SDS011;3086;48.802;9.394;2024-01-30T12:43:23;8.70;;;4.50;;
6111;SDS011;3086;48.802;9.394;2024-01-30T12:46:48;6.50;;;5.13;;
6111;SDS011;3086;48.802;9.394;2024-01-30T12:50:09;6.53;;;5.00;;
6111;SDS011;3086;48.802;9.394;2024-01-30T12:53:32;6.53;;;5.50;;
6111;SDS011;3086;48.802;9.394;2024-01-30T12:56:54;9.07;;;5.63;;
6111;SDS011;3086;48.802;9.394;2024-01-30T13:00:16;18.87;;;10.77;;
6111;SDS011;3086;48.802;9.394;2024-01-30T13:03:39;5.50;;;4.47;;
6111;SDS011;3086;48.802;9.394;2024-01-30T13:07:01;4.57;;;3.90;;
6111;SDS011;3086;48.802;9.394;2024-01-30T13:10:22;4.20;;;3.80;;
6111;SDS011;3086;48.802;9.394;2024-01-30T13:13:44;4.67;;;3.53;;
6111;SDS011;3086;48.802;9.394;2024-01-30T13:17:05;6.07;;;3.80;;
6111;SDS011;3086;48.802;9.394;2024-01-30T13:20:28;6.60;;;4.20;;
6111;SDS011;3086;48.802;9.394;2024-01-30T13:23:49;4.33;;;3.93;;
6111;SDS011;3086;48.802;9.394;2024-01-30T13:27:13;5.57;;;4.43;;
6111;SDS011;3086;48.802;9.394;2024-01-30T13:30:34;6.20;;;4.70;;
6111;SDS011;3086;48.802;9.394;2024-01-30T13:33:56;7.23;;;5.30;;
6111;SDS011;3086;48.802;9.394;2024-01-30T13:37:19;9.53;;;4.93;;
6111;SDS011;3086;48.802;9.394;2024-01-30T13:40:40;5.57;;;3.73;;
6111;SDS011;3086;48.802;9.394;2024-01-30T13:44:02;4.07;;;3.70;;
6111;SDS011;3086;48.802;9.394;2024-01-30T13:47:24;5.00;;;3.90;;
6111;SDS011;3086;48.802;9.394;2024-01-30T13:50:45;5.67;;;4.10;;
6111;SDS011;3086;48.802;9.394;2024-01-30T13:54:09;6.90;;;4.13;;
6111;SDS011;3086;48.802;9.394;2024-01-30T13:57:30;4.70;;;4.20;;
6111;SDS011;3086;48.802;9.394;2024-01-30T14:00:55;4.47;;;4.03;;
6111;SDS011;3086;48.802;9.394;2024-01-30T14:04:16;9.90;;;6.40;;
6111;SDS011;3086;48.802;9.394;2024-01-30T14:07:38;10.90;;;7.30;;
6111;SDS011;3086;48.802;9.394;2024-01-30T14:11:02;14.40;;;9.90;;
6111;SDS011;3086;48.802;9.394;2024-01-30T14:14:23;14.17;;;9.63;;
6111;SDS011;3086;48.802;9.394;2024-01-30T14:17:45;13.57;;;8.90;;
6111;SDS011;3086;48.802;9.394;2024-01-30T14:21:08;11.83;;;8.33;;
6111;SDS011;3086;48.802;9.394;2024-01-30T14:24:30;9.80;;;5.83;;
6111;SDS011;3086;48.802;9.394;2024-01-30T14:27:52;17.23;;;14.60;;
6111;SDS011;3086;48.802;9.394;2024-01-30T14:31:14;9.10;;;5.50;;
6111;SDS011;3086;48.802;9.394;2024-01-30T14:34:37;7.83;;;6.13;;
6111;SDS011;3086;48.802;9.394;2024-01-30T14:37:59;9.30;;;6.03;;
6111;SDS011;3086;48.802;9.394;2024-01-30T14:41:21;9.00;;;5.97;;
6111;SDS011;3086;48.802;9.394;2024-01-30T14:44:44;9.13;;;6.20;;
6111;SDS011;3086;48.802;9.394;2024-01-30T14:48:06;21.00;;;13.43;;
6111;SDS011;3086;48.802;9.394;2024-01-30T14:51:28;16.53;;;11.10;;
6111;SDS011;3086;48.802;9.394;2024-01-30T14:54:50;15.90;;;9.43;;
6111;SDS011;3086;48.802;9.394;2024-01-30T14:58:12;13.77;;;11.20;;
6111;SDS011;3086;48.802;9.394;2024-01-30T15:01:34;12.97;;;10.00;;
6111;SDS011;3086;48.802;9.394;2024-01-30T15:04:56;18.93;;;10.07;;
6111;SDS011;3086;48.802;9.394;2024-01-30T15:08:18;13.47;;;9.03;;
6111;SDS011;3086;48.802;9.394;2024-01-30T15:11:39;20.10;;;12.07;;
6111;SDS011;3086;48.802;9.394;2024-01-30T15:15:01;16.43;;;11.43;;
6111;SDS011;3086;48.802;9.394;2024-01-30T15:18:23;18.17;;;11.50;;
6111;SDS011;3086;48.802;9.394;2024-01-30T15:21:45;14.77;;;10.60;;
6111;SDS011;3086;48.802;9.394;2024-01-30T15:25:06;17.93;;;11.33;;
6111;SDS011;3086;48.802;9.394;2024-01-30T15:28:34;16.37;;;11.00;;
6111;SDS011;3086;48.802;9.394;2024-01-30T15:31:57;19.27;;;11.50;;
6111;SDS011;3086;48.802;9.394;2024-01-30T15:35:20;22.13;;;12.27;;
6111;SDS011;3086;48.802;9.394;2024-01-30T15:38:41;22.23;;;13.30;;
6111;SDS011;3086;48.802;9.394;2024-01-30T15:42:03;17.80;;;10.03;;
6111;SDS011;3086;48.802;9.394;2024-01-30T15:45:25;16.90;;;10.67;;
6111;SDS011;3086;48.802;9.394;2024-01-30T15:48:47;14.63;;;9.83;;
6111;SDS011;3086;48.802;9.394;2024-01-30T15:52:09;16.60;;;11.07;;
6111;SDS011;3086;48.802;9.394;2024-01-30T15:55:34;15.07;;;10.47;;
6111;SDS011;3086;48.802;9.394;2024-01-30T15:58:55;17.67;;;10.33;;
6111;SDS011;3086;48.802;9.394;2024-01-30T16:02:17;12.60;;;9.40;;
6111;SDS011;3086;48.802;9.394;2024-01-30T16:05:40;13.87;;;9.43;;
6111;SDS011;3086;48.802;9.394;2024-01-30T16:09:03;12.47;;;8.73;;
6111;SDS011;3086;48.802;9.394;2024-01-30T16:12:25;10.77;;;8.73;;
6111;SDS011;3086;48.802;9.394;2024-01-30T16:15:46;18.83;;;11.30;;
6111;SDS011;3086;48.802;9.394;2024-01-30T16:19:08;13.33;;;8.83;;
6111;SDS011;3086;48.802;9.394;2024-01-30T16:22:29;14.53;;;9.37;;
6111;SDS011;3086;48.802;9.394;2024-01-30T16:25:53;11.73;;;7.50;;
6111;SDS011;3086;48.802;9.394;2024-01-30T16:29:14;15.83;;;7.27;;
6111;SDS011;3086;48.802;9.394;2024-01-30T16:32:36;14.83;;;9.10;;
6111;SDS011;3086;48.802;9.394;2024-01-30T16:35:57;14.10;;;9.07;;
6111;SDS011;3086;48.802;9.394;2024-01-30T16:39:19;11.50;;;8.40;;
6111;SDS011;3086;48.802;9.394;2024-01-30T16:42:42;14.47;;;8.63;;
6111;SDS011;3086;48.802;9.394;2024-01-30T16:46:03;11.60;;;8.20;;
6111;SDS011;3086;48.802;9.394;2024-01-30T16:49:25;9.40;;;7.47;;
6111;SDS011;3086;48.802;9.394;2024-01-30T16:52:46;13.10;;;10.63;;
6111;SDS011;3086;48.802;9.394;2024-01-30T16:56:08;12.80;;;8.63;;
6111;SDS011;3086;48.802;9.394;2024-01-30T16:59:31;15.17;;;8.03;;
6111;SDS011;3086;48.802;9.394;2024-01-30T17:02:52;10.37;;;8.03;;
6111;SDS011;3086;48.802;9.394;2024-01-30T17:06:14;17.53;;;10.97;;
6111;SDS011;3086;48.802;9.394;2024-01-30T17:09:35;15.40;;;11.07;;
6111;SDS011;3086;48.802;9.394;2024-01-30T17:12:57;16.40;;;10.27;;
6111;SDS011;3086;48.802;9.394;2024-01-30T17:16:21;14.53;;;10.03;;
6111;SDS011;3086;48.802;9.394;2024-01-30T17:19:42;12.60;;;9.30;;
6111;SDS011;3086;48.802;9.394;2024-01-30T17:23:04;14.33;;;8.97;;
6111;SDS011;3086;48.802;9.394;2024-01-30T17:26:27;11.33;;;7.90;;
6111;SDS011;3086;48.802;9.394;2024-01-30T17:29:49;14.17;;;9.13;;
6111;SDS011;3086;48.802;9.394;2024-01-30T17:33:12;13.40;;;8.70;;
6111;SDS011;3086;48.802;9.394;2024-01-30T17:36:35;12.73;;;9.17;;
6111;SDS011;3086;48.802;9.394;2024-01-30T17:39:56;13.37;;;9.17;;
6111;SDS011;3086;48.802;9.394;2024-01-30T17:43:18;10.50;;;8.03;;
6111;SDS011;3086;48.802;9.394;2024-01-30T17:46:39;9.67;;;7.37;;
6111;SDS011;3086;48.802;9.394;2024-01-30T17:50:03;10.37;;;7.93;;
6111;SDS011;3086;48.802;9.394;2024-01-30T17:53:25;10.80;;;8.50;;
6111;SDS011;3086;48.802;9.394;2024-01-30T17:56:47;15.67;;;8.63;;
6111;SDS011;3086;48.802;9.394;2024-01-30T18:00:09;13.87;;;9.93;;
6111;SDS011;3086;48.802;9.394;2024-01-30T18:03:31;12.40;;;7.63;;
6111;SDS011;3086;48.802;9.394;2024-01-30T18:06:54;14.20;;;9.57;;
6111;SDS011;3086;48.802;9.394;2024-01-30T18:10:15;13.83;;;9.60;;
6111;SDS011;3086;48.802;9.394;2024-01-30T18:13:39;16.63;;;13.63;;
6111;SDS011;3086;48.802;9.394;2024-01-30T18:17:00;20.00;;;15.23;;
6111;SDS011;3086;48.802;9.394;2024-01-30T18:20:24;18.00;;;12.57;;
6111;SDS011;3086;48.802;9.394;2024-01-30T18:23:46;13.07;;;8.50;;
6111;SDS011;3086;48.802;9.394;2024-01-30T18:27:08;13.27;;;8.90;;
6111;SDS011;3086;48.802;9.394;2024-01-30T18:30:30;11.27;;;8.83;;
6111;SDS011;3086;48.802;9.394;2024-01-30T18:33:52;12.03;;;8.37;;
6111;SDS011;3086;48.802;9.394;2024-01-30T18:37:14;8.80;;;7.30;;
6111;SDS011;3086;48.802;9.394;2024-01-30T18:40:37;11.20;;;7.57;;
6111;SDS011;3086;48.802;9.394;2024-01-30T18:43:58;12.07;;;7.97;;
6111;SDS011;3086;48.802;9.394;2024-01-30T18:47:22;11.13;;;7.50;;
6111;SDS011;3086;48.802;9.394;2024-01-30T18:50:43;12.00;;;7.80;;
6111;SDS011;3086;48.802;9.394;2024-01-30T18:54:05;10.30;;;7.23;;
6111;SDS011;3086;48.802;9.394;2024-01-30T18:57:28;10.80;;;7.40;;
6111;SDS011;3086;48.802;9.394;2024-01-30T19:00:49;14.23;;;7.70;;
6111;SDS011;3086;48.802;9.394;2024-01-30T19:04:11;10.00;;;7.57;;
6111;SDS011;3086;48.802;9.394;2024-01-30T19:07:33;9.00;;;7.47;;
6111;SDS011;3086;48.802;9.394;2024-01-30T19:10:55;12.90;;;10.60;;
6111;SDS011;3086;48.802;9.394;2024-01-30T19:14:18;10.17;;;7.63;;
6111;SDS011;3086;48.802;9.394;2024-01-30T19:17:41;13.73;;;8.20;;
6111;SDS011;3086;48.802;9.394;2024-01-30T19:21:03;12.17;;;8.60;;
6111;SDS011;3086;48.802;9.394;2024-01-30T19:24:25;12.47;;;8.03;;
6111;SDS011;3086;48.802;9.394;2024-01-30T19:27:46;13.37;;;7.97;;
6111;SDS011;3086;48.802;9.394;2024-01-30T19:31:10;11.33;;;8.10;;
6111;SDS011;3086;48.802;9.394;2024-01-30T19:34:31;10.37;;;8.00;;
6111;SDS011;3086;48.802;9.394;2024-01-30T19:37:53;13.60;;;8.47;;
6111;SDS011;3086;48.802;9.394;2024-01-30T19:41:14;10.10;;;7.43;;
6111;SDS011;3086;48.802;9.394;2024-01-30T19:44:36;10.33;;;7.27;;
6111;SDS011;3086;48.802;9.394;2024-01-30T19:48:00;10.97;;;8.07;;
6111;SDS011;3086;48.802;9.394;2024-01-30T19:51:22;11.53;;;8.43;;
6111;SDS011;3086;48.802;9.394;2024-01-30T19:54:43;10.87;;;6.97;;
6111;SDS011;3086;48.802;9.394;2024-01-30T19:58:05;10.30;;;7.40;;
6111;SDS011;3086;48.802;9.394;2024-01-30T20:01:27;12.27;;;7.53;;
6111;SDS011;3086;48.802;9.394;2024-01-30T20:04:50;8.20;;;7.40;;
6111;SDS011;3086;48.802;9.394;2024-01-30T20:08:11;8.43;;;7.03;;
6111;SDS011;3086;48.802;9.394;2024-01-30T20:11:35;11.80;;;7.63;;
6111;SDS011;3086;48.802;9.394;2024-01-30T20:14:57;13.37;;;9.03;;
6111;SDS011;3086;48.802;9.394;2024-01-30T20:18:19;13.33;;;7.90;;
6111;SDS011;3086;48.802;9.394;2024-01-30T20:21:42;9.80;;;7.03;;
6111;SDS011;3086;48.802;9.394;2024-01-30T20:25:05;10.83;;;7.10;;
6111;SDS011;3086;48.802;9.394;2024-01-30T20:28:27;8.93;;;7.23;;
6111;SDS011;3086;48.802;9.394;2024-01-30T20:31:50;9.80;;;7.13;;
6111;SDS011;3086;48.802;9.394;2024-01-30T20:35:11;10.07;;;6.67;;
6111;SDS011;3086;48.802;9.394;2024-01-30T20:38:34;11.43;;;7.20;;